Time;durP1;ratioP1;P1;durP2;ratioP2;P2;SDS_P1;SDS_P2;PMS_P1;PMS_P2;Temp;Humidity;BMP_temperature;BMP_pressure;BME280_temperature;BME280_humidity;BME280_pressure;Samples;Min_cycle;Max_cycle;Signal;HPM_P1;HPM_P2
2021/05/25 00:01:07;;;;;;;2.30;0.95;;;;;;;;;;5013424;28;20041;-50
2021/05/25 00:03:33;;;;;;;2.75;0.80;;;;;;;;;;5020055;28;20446;-53
2021/05/25 00:05:59;;;;;;;4.60;1.10;;;;;;;;;;5021694;28;20064;-51
2021/05/25 00:08:25;;;;;;;2.83;1.20;;;;;;;;;;5023285;28;20033;-50
2021/05/25 00:10:51;;;;;;;10.02;0.75;;;;;;;;;;5020600;28;20103;-50
2021/05/25 00:13:17;;;;;;;3.67;0.82;;;;;;;;;;5017131;28;20100;-49
2021/05/25 00:15:43;;;;;;;3.20;1.05;;;;;;;;;;5021783;28;20029;-48
2021/05/25 00:18:09;;;;;;;2.88;0.80;;;;;;;;;;5020571;28;20824;-49
2021/05/25 00:20:35;;;;;;;2.55;0.70;;;;;;;;;;5018681;28;20057;-49
2021/05/25 00:23:01;;;;;;;1.92;0.90;;;;;;;;;;5018770;28;20030;-51
2021/05/25 00:25:31;;;;;;;3.63;1.10;;;;;;;;;;5011505;28;20072;-49
2021/05/25 00:27:57;;;;;;;2.47;0.90;;;;;;;;;;5011609;28;20029;-49
2021/05/25 00:30:23;;;;;;;2.33;0.90;;;;;;;;;;5021261;28;20057;-51
2021/05/25 00:32:50;;;;;;;2.22;0.80;;;;;;;;;;5019176;28;20249;-49
2021/05/25 00:35:16;;;;;;;1.33;0.80;;;;;;;;;;5023281;28;20034;-49
2021/05/25 00:37:42;;;;;;;2.67;0.70;;;;;;;;;;5028844;28;20025;-49
2021/05/25 00:40:09;;;;;;;2.42;0.80;;;;;;;;;;5030755;28;20033;-49
2021/05/25 00:42:35;;;;;;;3.20;0.90;;;;;;;;;;5015923;28;20109;-49
2021/05/25 00:45:01;;;;;;;5.85;1.00;;;;;;;;;;5011943;28;20525;-49
2021/05/25 00:47:30;;;;;;;2.88;1.05;;;;;;;;;;5011026;28;20033;-49
2021/05/25 00:50:09;;;;;;;2.15;1.45;;;;;;;;;;5023338;28;20486;-49
2021/05/25 00:52:36;;;;;;;1.20;0.75;;;;;;;;;;5027736;28;20087;-49
2021/05/25 00:55:03;;;;;;;1.85;0.63;;;;;;;;;;5029075;28;20045;-48
2021/05/25 00:57:29;;;;;;;5.68;1.08;;;;;;;;;;5017964;28;20102;-50
2021/05/25 00:59:55;;;;;;;1.75;0.80;;;;;;;;;;5016838;28;20033;-49
2021/05/25 01:02:20;;;;;;;1.67;0.93;;;;;;;;;;5033953;28;20073;-47
2021/05/25 01:04:46;;;;;;;1.73;0.90;;;;;;;;;;5022105;28;20022;-47
2021/05/25 01:07:13;;;;;;;2.00;0.80;;;;;;;;;;5029922;28;20514;-47
2021/05/25 01:09:39;;;;;;;1.38;0.88;;;;;;;;;;5034729;28;20376;-47
2021/05/25 01:12:07;;;;;;;2.38;0.82;;;;;;;;;;5027748;28;20377;-48
2021/05/25 01:14:40;;;;;;;2.35;0.82;;;;;;;;;;5023025;28;20045;-47
2021/05/25 01:17:06;;;;;;;2.30;0.97;;;;;;;;;;5020577;28;20473;-47
2021/05/25 01:19:32;;;;;;;1.00;0.68;;;;;;;;;;5014613;28;20334;-47
2021/05/25 01:21:59;;;;;;;1.98;0.90;;;;;;;;;;5016160;28;20030;-47
2021/05/25 01:24:32;;;;;;;3.08;1.00;;;;;;;;;;5021710;28;20164;-48
2021/05/25 01:27:02;;;;;;;1.65;0.52;;;;;;;;;;5022436;28;20036;-47
2021/05/25 01:29:28;;;;;;;1.63;0.88;;;;;;;;;;5014275;28;20521;-47
2021/05/25 01:31:54;;;;;;;2.13;1.00;;;;;;;;;;5021612;28;20113;-48
2021/05/25 01:34:20;;;;;;;1.95;1.17;;;;;;;;;;5020547;28;20021;-47
2021/05/25 01:36:46;;;;;;;1.20;0.88;;;;;;;;;;5020435;28;20038;-47
2021/05/25 01:39:13;;;;;;;5.07;1.17;;;;;;;;;;5023902;28;20108;-47
2021/05/25 01:41:39;;;;;;;3.05;1.13;;;;;;;;;;5013843;28;20565;-47
2021/05/25 01:44:06;;;;;;;2.90;1.08;;;;;;;;;;5029369;28;20030;-47
2021/05/25 01:46:32;;;;;;;2.30;1.08;;;;;;;;;;5025603;28;20029;-47
2021/05/25 01:48:58;;;;;;;2.47;1.10;;;;;;;;;;5013958;28;20109;-47
2021/05/25 01:51:24;;;;;;;2.38;1.00;;;;;;;;;;5017218;28;21563;-47
2021/05/25 01:53:50;;;;;;;2.45;1.25;;;;;;;;;;5016452;28;20117;-47
2021/05/25 01:56:16;;;;;;;1.88;1.30;;;;;;;;;;5015143;28;20045;-47
2021/05/25 01:58:43;;;;;;;3.55;1.20;;;;;;;;;;5014158;28;20038;-47
2021/05/25 02:01:10;;;;;;;3.80;1.23;;;;;;;;;;5028474;28;20532;-47
2021/05/25 02:03:36;;;;;;;2.80;0.90;;;;;;;;;;5032936;28;20454;-47
2021/05/25 02:06:03;;;;;;;1.98;0.95;;;;;;;;;;5022498;28;20028;-47
2021/05/25 02:08:29;;;;;;;0.88;0.80;;;;;;;;;;5013820;28;20069;-47
2021/05/25 02:10:56;;;;;;;2.10;0.98;;;;;;;;;;5015049;28;20041;-47
2021/05/25 02:13:23;;;;;;;7.35;1.30;;;;;;;;;;5022909;28;20053;-47
2021/05/25 02:15:50;;;;;;;3.05;1.10;;;;;;;;;;5020378;28;20033;-47
2021/05/25 02:18:18;;;;;;;3.00;1.00;;;;;;;;;;5022123;28;20041;-47
2021/05/25 02:20:45;;;;;;;4.07;1.27;;;;;;;;;;5024006;28;20050;-49
2021/05/25 02:23:11;;;;;;;3.30;1.20;;;;;;;;;;5020721;28;20339;-47
2021/05/25 02:25:37;;;;;;;3.15;1.25;;;;;;;;;;5028038;28;20469;-47
2021/05/25 02:28:04;;;;;;;2.45;1.20;;;;;;;;;;5012051;28;20040;-47
2021/05/25 02:30:30;;;;;;;1.20;0.85;;;;;;;;;;5016924;28;20100;-48
2021/05/25 02:32:57;;;;;;;1.65;1.05;;;;;;;;;;5026846;28;20049;-48
2021/05/25 02:35:23;;;;;;;2.88;1.15;;;;;;;;;;5020237;28;20025;-47
2021/05/25 02:37:49;;;;;;;2.05;1.13;;;;;;;;;;5017927;28;20108;-48
2021/05/25 02:40:15;;;;;;;3.00;1.15;;;;;;;;;;5021916;28;20481;-47
2021/05/25 02:42:41;;;;;;;2.15;1.10;;;;;;;;;;5015509;28;20045;-47
2021/05/25 02:45:08;;;;;;;2.05;1.17;;;;;;;;;;5021535;28;20034;-48
2021/05/25 02:47:34;;;;;;;4.00;1.17;;;;;;;;;;5016436;28;20017;-47
2021/05/25 02:50:06;;;;;;;3.28;0.95;;;;;;;;;;5022234;28;20033;-47
2021/05/25 02:52:33;;;;;;;2.17;1.40;;;;;;;;;;5013003;28;20117;-47
2021/05/25 02:54:59;;;;;;;2.50;0.80;;;;;;;;;;5021848;28;20041;-47
2021/05/25 02:57:25;;;;;;;1.80;1.17;;;;;;;;;;5013141;28;20401;-47
2021/05/25 02:59:51;;;;;;;3.38;1.20;;;;;;;;;;5029212;28;20033;-47
2021/05/25 03:02:17;;;;;;;5.10;1.60;;;;;;;;;;5018559;28;20100;-47
2021/05/25 03:04:43;;;;;;;5.55;1.25;;;;;;;;;;5032059;28;20025;-47
2021/05/25 03:07:09;;;;;;;2.55;1.33;;;;;;;;;;5027287;28;20083;-47
2021/05/25 03:09:35;;;;;;;5.65;1.42;;;;;;;;;;5016048;28;20559;-47
2021/05/25 03:12:01;;;;;;;1.77;1.23;;;;;;;;;;5024285;28;20099;-47
2021/05/25 03:14:27;;;;;;;4.53;1.40;;;;;;;;;;5014162;28;20661;-50
2021/05/25 03:16:52;;;;;;;4.13;1.63;;;;;;;;;;5016557;28;20033;-48
2021/05/25 03:19:19;;;;;;;3.55;1.60;;;;;;;;;;5024390;28;20373;-49
2021/05/25 03:21:45;;;;;;;2.55;1.60;;;;;;;;;;5022554;28;20034;-49
2021/05/25 03:24:11;;;;;;;1.73;1.23;;;;;;;;;;5018929;28;20117;-51
2021/05/25 03:26:37;;;;;;;4.97;1.63;;;;;;;;;;5015453;28;20029;-49
2021/05/25 03:29:03;;;;;;;2.55;1.60;;;;;;;;;;5023883;28;20133;-48
2021/05/25 03:31:29;;;;;;;4.97;2.00;;;;;;;;;;5027340;28;20040;-48
2021/05/25 03:33:56;;;;;;;3.65;1.60;;;;;;;;;;5020258;28;20080;-49
2021/05/25 03:36:22;;;;;;;2.85;1.70;;;;;;;;;;5015534;28;20462;-50
2021/05/25 03:38:48;;;;;;;4.72;1.63;;;;;;;;;;5021694;28;20449;-49
2021/05/25 03:41:14;;;;;;;4.95;1.40;;;;;;;;;;5018680;28;20041;-49
2021/05/25 03:43:40;;;;;;;6.22;1.90;;;;;;;;;;5015775;28;20124;-48
2021/05/25 03:46:06;;;;;;;2.75;1.42;;;;;;;;;;5009795;28;20025;-49
2021/05/25 03:48:32;;;;;;;5.53;2.30;;;;;;;;;;5013774;28;20037;-48
2021/05/25 03:50:58;;;;;;;4.72;2.20;;;;;;;;;;5025527;28;20029;-48
2021/05/25 03:53:25;;;;;;;4.45;1.50;;;;;;;;;;5023922;28;20025;-49
2021/05/25 03:56:05;;;;;;;3.38;1.50;;;;;;;;;;5026334;28;20368;-48
2021/05/25 04:01:33;;;;;;;5.80;1.75;;;;;;;;;;5007857;28;20050;-48
2021/05/25 04:03:59;;;;;;;4.47;1.35;;;;;;;;;;5001376;28;20485;-48
2021/05/25 04:06:25;;;;;;;1.85;1.20;;;;;;;;;;5011565;28;20084;-48
2021/05/25 04:08:51;;;;;;;2.88;1.50;;;;;;;;;;5015875;28;20041;-48
2021/05/25 04:11:17;;;;;;;2.60;1.40;;;;;;;;;;5015367;28;20045;-50
2021/05/25 04:13:44;;;;;;;2.72;1.85;;;;;;;;;;5018015;28;20192;-48
2021/05/25 04:16:12;;;;;;;2.42;1.17;;;;;;;;;;5017702;28;20464;-48
2021/05/25 04:18:38;;;;;;;2.83;1.55;;;;;;;;;;5019913;28;20033;-49
2021/05/25 04:21:04;;;;;;;2.38;1.45;;;;;;;;;;5013582;28;20096;-49
2021/05/25 04:23:30;;;;;;;3.63;1.73;;;;;;;;;;5030297;28;20026;-47
2021/05/25 04:25:56;;;;;;;4.18;1.80;;;;;;;;;;5022847;28;20378;-48
2021/05/25 04:28:22;;;;;;;4.28;1.70;;;;;;;;;;5021830;28;20108;-48
2021/05/25 04:30:48;;;;;;;3.03;1.55;;;;;;;;;;5019033;28;20126;-48
2021/05/25 04:33:14;;;;;;;5.45;1.73;;;;;;;;;;5020692;28;20053;-48
2021/05/25 04:35:41;;;;;;;4.38;1.80;;;;;;;;;;5019541;28;20084;-47
2021/05/25 04:38:07;;;;;;;3.75;2.15;;;;;;;;;;5022870;28;20053;-47
2021/05/25 04:40:33;;;;;;;3.08;1.50;;;;;;;;;;5030654;28;20097;-47
2021/05/25 04:43:00;;;;;;;3.65;1.83;;;;;;;;;;5013865;28;20069;-49
2021/05/25 04:45:26;;;;;;;2.58;1.45;;;;;;;;;;5015896;28;20120;-48
2021/05/25 04:47:52;;;;;;;4.53;1.38;;;;;;;;;;5022003;28;20119;-49
2021/05/25 04:50:19;;;;;;;4.60;1.50;;;;;;;;;;5016437;28;20388;-48
2021/05/25 04:52:45;;;;;;;3.72;1.30;;;;;;;;;;5029084;28;20033;-48
2021/05/25 04:55:13;;;;;;;6.03;1.75;;;;;;;;;;5017735;28;20105;-49
2021/05/25 04:57:39;;;;;;;1.77;1.30;;;;;;;;;;5015450;28;20041;-49
2021/05/25 05:00:06;;;;;;;1.83;1.15;;;;;;;;;;5015084;28;20109;-49
2021/05/25 05:02:32;;;;;;;2.83;1.38;;;;;;;;;;5010187;28;20021;-48
2021/05/25 05:04:58;;;;;;;1.40;1.00;;;;;;;;;;5025191;28;20473;-48
2021/05/25 05:07:24;;;;;;;2.20;0.98;;;;;;;;;;5013985;28;20030;-48
2021/05/25 05:09:50;;;;;;;4.03;1.30;;;;;;;;;;5023336;28;20033;-48
2021/05/25 05:12:16;;;;;;;2.20;1.17;;;;;;;;;;5017260;28;20029;-48
2021/05/25 05:14:42;;;;;;;2.08;1.02;;;;;;;;;;5015023;28;20034;-48
2021/05/25 05:17:08;;;;;;;5.18;1.33;;;;;;;;;;5022534;28;20034;-49
2021/05/25 05:19:34;;;;;;;1.92;1.20;;;;;;;;;;5018818;28;20079;-49
2021/05/25 05:22:00;;;;;;;3.80;1.10;;;;;;;;;;5016123;28;20061;-48
2021/05/25 05:24:26;;;;;;;1.15;0.93;;;;;;;;;;5015683;28;20103;-48
2021/05/25 05:26:52;;;;;;;4.03;1.10;;;;;;;;;;5018200;28;20032;-48
2021/05/25 05:29:18;;;;;;;1.95;0.88;;;;;;;;;;5024853;28;20093;-51
2021/05/25 05:31:45;;;;;;;1.85;0.90;;;;;;;;;;5028233;28;20034;-48
2021/05/25 05:34:12;;;;;;;1.92;0.77;;;;;;;;;;5009114;28;20030;-51
2021/05/25 05:36:38;;;;;;;0.95;0.80;;;;;;;;;;5026377;28;20030;-52
2021/05/25 05:39:04;;;;;;;2.50;0.90;;;;;;;;;;5001947;28;20049;-48
2021/05/25 05:41:30;;;;;;;1.27;0.65;;;;;;;;;;5014365;28;20042;-50
2021/05/25 05:43:56;;;;;;;1.85;0.55;;;;;;;;;;5008106;28;20516;-49
2021/05/25 05:46:24;;;;;;;2.90;0.77;;;;;;;;;;5013363;28;20022;-52
2021/05/25 05:48:50;;;;;;;1.92;0.60;;;;;;;;;;5012903;28;20437;-49
2021/05/25 05:51:16;;;;;;;1.83;0.70;;;;;;;;;;5013650;28;20034;-51
2021/05/25 05:53:42;;;;;;;3.08;0.73;;;;;;;;;;5019584;28;20034;-47
2021/05/25 05:56:08;;;;;;;1.17;0.75;;;;;;;;;;5015844;28;20072;-49
2021/05/25 05:58:34;;;;;;;1.52;0.65;;;;;;;;;;5013445;28;20470;-49
2021/05/25 06:01:03;;;;;;;1.45;0.80;;;;;;;;;;5013815;28;20056;-48
2021/05/25 06:03:29;;;;;;;0.60;0.50;;;;;;;;;;5013060;28;20022;-49
2021/05/25 06:05:55;;;;;;;0.98;0.75;;;;;;;;;;5024851;28;20461;-50
2021/05/25 06:08:22;;;;;;;1.70;0.80;;;;;;;;;;5011646;28;20049;-49
2021/05/25 06:10:51;;;;;;;0.77;0.60;;;;;;;;;;5014641;28;20116;-52
2021/05/25 06:13:23;;;;;;;1.13;0.60;;;;;;;;;;5012286;28;20076;-51
2021/05/25 06:15:51;;;;;;;1.23;0.73;;;;;;;;;;5022238;28;20591;-52
2021/05/25 06:18:17;;;;;;;1.80;0.75;;;;;;;;;;5015170;28;20093;-48
2021/05/25 06:20:43;;;;;;;1.63;0.80;;;;;;;;;;5013188;28;20058;-50
2021/05/25 06:23:09;;;;;;;2.85;1.00;;;;;;;;;;5017461;28;20490;-48
2021/05/25 06:25:35;;;;;;;1.23;0.70;;;;;;;;;;5015776;28;20088;-50
2021/05/25 06:28:01;;;;;;;2.03;0.70;;;;;;;;;;5012923;28;20124;-50
2021/05/25 06:30:29;;;;;;;0.90;0.60;;;;;;;;;;5014333;28;20125;-49
2021/05/25 06:32:55;;;;;;;0.80;0.60;;;;;;;;;;5017013;28;20030;-51
2021/05/25 06:35:21;;;;;;;1.35;0.52;;;;;;;;;;5012861;28;20038;-51
2021/05/25 06:37:47;;;;;;;1.67;0.60;;;;;;;;;;5020463;28;20041;-52
2021/05/25 06:40:13;;;;;;;3.38;0.70;;;;;;;;;;5026274;28;20040;-49
2021/05/25 06:42:40;;;;;;;3.45;0.70;;;;;;;;;;5024270;28;20168;-50
2021/05/25 06:45:06;;;;;;;0.90;0.52;;;;;;;;;;5008192;28;20042;-48
2021/05/25 06:47:33;;;;;;;1.40;0.70;;;;;;;;;;5017992;28;20549;-51
2021/05/25 06:49:59;;;;;;;2.17;0.57;;;;;;;;;;5024596;28;20036;-49
2021/05/25 06:52:25;;;;;;;1.33;0.75;;;;;;;;;;5020518;28;20033;-50
2021/05/25 06:54:51;;;;;;;4.55;1.30;;;;;;;;;;5026034;28;20030;-49
2021/05/25 06:57:17;;;;;;;1.13;0.57;;;;;;;;;;5016945;28;20033;-47
2021/05/25 06:59:43;;;;;;;3.38;0.55;;;;;;;;;;5014718;28;20084;-51
2021/05/25 07:02:09;;;;;;;1.02;0.75;;;;;;;;;;5016604;28;20030;-50
2021/05/25 07:04:35;;;;;;;2.78;0.60;;;;;;;;;;5010971;28;20018;-49
2021/05/25 07:07:01;;;;;;;2.63;0.93;;;;;;;;;;5012855;28;20657;-50
2021/05/25 07:09:27;;;;;;;1.48;0.70;;;;;;;;;;5020626;28;20019;-50
2021/05/25 07:11:53;;;;;;;1.30;0.75;;;;;;;;;;5016125;28;20037;-48
2021/05/25 07:14:19;;;;;;;4.22;0.60;;;;;;;;;;5020293;28;20026;-52
2021/05/25 07:16:45;;;;;;;2.97;0.90;;;;;;;;;;5007467;28;20500;-49
2021/05/25 07:19:11;;;;;;;3.22;0.85;;;;;;;;;;5004353;28;20025;-48
2021/05/25 07:21:37;;;;;;;3.17;1.00;;;;;;;;;;5017930;28;20120;-49
2021/05/25 07:24:03;;;;;;;0.98;0.65;;;;;;;;;;5022973;28;20100;-49
2021/05/25 07:26:29;;;;;;;1.33;0.73;;;;;;;;;;5015911;28;20028;-52
2021/05/25 07:28:55;;;;;;;1.30;0.50;;;;;;;;;;5021671;28;20478;-53
2021/05/25 07:31:21;;;;;;;1.52;0.57;;;;;;;;;;5006277;28;20033;-50
2021/05/25 07:33:47;;;;;;;4.93;0.82;;;;;;;;;;5010515;28;20026;-49
2021/05/25 07:36:13;;;;;;;3.40;0.70;;;;;;;;;;5012242;28;20084;-49
2021/05/25 07:38:39;;;;;;;1.60;0.65;;;;;;;;;;5008526;28;20026;-50
2021/05/25 07:41:05;;;;;;;1.65;0.70;;;;;;;;;;5020245;28;20077;-50
2021/05/25 07:43:32;;;;;;;2.40;0.60;;;;;;;;;;5015406;28;20032;-48
2021/05/25 07:45:58;;;;;;;1.48;0.60;;;;;;;;;;5024283;28;20026;-48
2021/05/25 07:48:24;;;;;;;1.27;0.50;;;;;;;;;;5022923;28;20533;-49
2021/05/25 07:50:50;;;;;;;1.75;0.65;;;;;;;;;;5027468;28;20022;-48
2021/05/25 07:53:17;;;;;;;2.97;0.68;;;;;;;;;;5020061;28;20462;-48
2021/05/25 07:55:43;;;;;;;1.00;0.57;;;;;;;;;;5028918;28;20048;-48
2021/05/25 07:58:09;;;;;;;1.38;0.60;;;;;;;;;;5017023;28;20357;-48
2021/05/25 08:00:35;;;;;;;1.83;0.70;;;;;;;;;;5016106;28;20067;-48
2021/05/25 08:03:01;;;;;;;1.02;0.45;;;;;;;;;;5016278;28;20025;-49
2021/05/25 08:05:33;;;;;;;2.33;0.70;;;;;;;;;;5030860;28;20028;-49
2021/05/25 08:08:02;;;;;;;1.25;0.47;;;;;;;;;;5026272;28;20022;-47
2021/05/25 08:10:28;;;;;;;0.73;0.45;;;;;;;;;;5019055;28;20034;-48
2021/05/25 08:12:54;;;;;;;2.05;0.63;;;;;;;;;;5033687;28;20029;-48
2021/05/25 08:15:22;;;;;;;2.42;0.50;;;;;;;;;;5023891;28;20071;-47
2021/05/25 08:17:54;;;;;;;3.53;0.70;;;;;;;;;;5021626;28;20018;-48
2021/05/25 08:20:20;;;;;;;2.10;0.60;;;;;;;;;;5017327;28;20028;-49
2021/05/25 08:22:50;;;;;;;3.50;0.60;;;;;;;;;;5029019;28;20032;-53
2021/05/25 08:25:18;;;;;;;1.00;0.70;;;;;;;;;;5015178;28;20074;-49
2021/05/25 08:27:47;;;;;;;2.22;0.98;;;;;;;;;;5017947;28;20080;-48
2021/05/25 08:30:15;;;;;;;1.60;0.45;;;;;;;;;;5033872;28;20148;-50
2021/05/25 08:32:41;;;;;;;0.73;0.55;;;;;;;;;;5021505;28;20477;-48
2021/05/25 08:35:07;;;;;;;3.20;0.75;;;;;;;;;;5014977;28;20116;-49
2021/05/25 08:37:33;;;;;;;1.25;0.60;;;;;;;;;;5031614;28;20120;-51
2021/05/25 08:40:05;;;;;;;1.10;0.50;;;;;;;;;;5035204;28;20033;-48
2021/05/25 08:42:31;;;;;;;2.83;0.70;;;;;;;;;;5024039;28;20057;-49
2021/05/25 08:44:57;;;;;;;1.33;0.60;;;;;;;;;;5019616;28;20034;-48
2021/05/25 08:47:23;;;;;;;1.45;0.50;;;;;;;;;;5019487;28;20412;-49
2021/05/25 08:49:50;;;;;;;1.60;0.50;;;;;;;;;;5023295;28;20104;-48
2021/05/25 08:52:17;;;;;;;1.58;0.65;;;;;;;;;;5031550;28;20524;-48
2021/05/25 08:54:44;;;;;;;0.88;0.40;;;;;;;;;;5031243;28;20040;-48
2021/05/25 08:57:12;;;;;;;1.08;0.45;;;;;;;;;;5024172;28;20064;-52
2021/05/25 08:59:37;;;;;;;1.20;0.30;;;;;;;;;;5017116;28;20037;-50
2021/05/25 09:02:04;;;;;;;1.55;0.60;;;;;;;;;;5029717;28;20037;-49
2021/05/25 09:04:54;;;;;;;2.42;0.60;;;;;;;;;;5031507;28;20022;-48
2021/05/25 09:07:36;;;;;;;0.93;0.40;;;;;;;;;;5023492;28;20077;-53
2021/05/25 09:10:03;;;;;;;4.18;0.60;;;;;;;;;;5021957;28;20026;-52
2021/05/25 09:12:33;;;;;;;3.25;0.50;;;;;;;;;;5019642;28;20033;-52
2021/05/25 09:15:00;;;;;;;2.92;0.57;;;;;;;;;;5043587;28;20025;-49
2021/05/25 09:17:26;;;;;;;2.97;0.50;;;;;;;;;;5028321;28;20477;-50
2021/05/25 09:19:53;;;;;;;1.52;0.50;;;;;;;;;;5025157;28;20032;-48
2021/05/25 09:22:33;;;;;;;1.83;0.52;;;;;;;;;;5024218;28;20077;-54
2021/05/25 09:25:05;;;;;;;0.55;0.30;;;;;;;;;;5022014;28;20022;-49
2021/05/25 09:27:39;;;;;;;0.88;0.40;;;;;;;;;;5027093;28;20057;-49
2021/05/25 09:30:25;;;;;;;1.67;0.50;;;;;;;;;;5033986;28;20132;-51
2021/05/25 09:32:59;;;;;;;0.95;0.32;;;;;;;;;;5028681;28;20034;-51
2021/05/25 09:35:26;;;;;;;1.02;0.32;;;;;;;;;;5033793;28;20243;-52
2021/05/25 09:37:54;;;;;;;1.27;0.40;;;;;;;;;;5027193;28;20026;-50
2021/05/25 09:40:21;;;;;;;0.80;0.40;;;;;;;;;;5019010;28;20026;-51
2021/05/25 09:42:48;;;;;;;1.10;0.75;;;;;;;;;;5024889;28;20035;-50
2021/05/25 09:45:16;;;;;;;0.65;0.40;;;;;;;;;;5019391;28;20026;-48
2021/05/25 09:47:43;;;;;;;2.38;0.40;;;;;;;;;;5022340;28;20025;-48
2021/05/25 09:50:13;;;;;;;9.05;0.90;;;;;;;;;;5029701;28;20474;-49
2021/05/25 09:52:59;;;;;;;1.08;0.40;;;;;;;;;;5026726;28;20087;-48
2021/05/25 09:55:25;;;;;;;2.50;0.40;;;;;;;;;;5023240;28;20413;-49
2021/05/25 09:57:53;;;;;;;1.33;0.45;;;;;;;;;;5019691;28;20033;-48
2021/05/25 10:00:29;;;;;;;0.68;0.43;;;;;;;;;;5026973;28;20565;-51
2021/05/25 10:03:05;;;;;;;1.08;0.47;;;;;;;;;;5026296;28;20033;-49
2021/05/25 10:05:32;;;;;;;1.67;0.50;;;;;;;;;;5008088;28;20021;-49
2021/05/25 10:08:01;;;;;;;3.90;0.70;;;;;;;;;;5018474;28;20022;-49
2021/05/25 10:10:28;;;;;;;3.88;0.50;;;;;;;;;;5032010;28;20022;-48
2021/05/25 10:12:55;;;;;;;0.80;0.63;;;;;;;;;;5028559;28;20029;-48
2021/05/25 10:15:23;;;;;;;3.08;0.43;;;;;;;;;;5032184;28;20086;-48
2021/05/25 10:20:31;;;;;;;8.27;1.05;;;;;;;;;;5025815;28;20049;-48
2021/05/25 10:22:57;;;;;;;3.75;0.90;;;;;;;;;;5019643;28;20038;-48
2021/05/25 10:25:25;;;;;;;1.88;0.80;;;;;;;;;;5012880;28;20109;-49
2021/05/25 10:27:51;;;;;;;1.20;0.70;;;;;;;;;;5032240;28;20369;-49
2021/05/25 10:30:26;;;;;;;2.13;0.63;;;;;;;;;;5019867;28;20080;-48
2021/05/25 10:32:53;;;;;;;2.55;0.75;;;;;;;;;;5018003;28;20461;-51
2021/05/25 10:35:20;;;;;;;2.70;0.60;;;;;;;;;;5028163;28;20037;-48
2021/05/25 10:38:05;;;;;;;0.63;0.40;;;;;;;;;;5025737;28;20503;-49
2021/05/25 10:40:41;;;;;;;2.88;0.60;;;;;;;;;;5026290;28;20041;-48
2021/05/25 10:43:25;;;;;;;3.50;0.70;;;;;;;;;;5015272;28;20042;-49
2021/05/25 10:45:52;;;;;;;2.58;0.40;;;;;;;;;;5022063;28;20044;-49
2021/05/25 10:48:19;;;;;;;2.58;0.50;;;;;;;;;;5013476;28;20112;-48
2021/05/25 10:50:51;;;;;;;1.08;0.43;;;;;;;;;;5022095;28;20030;-48
2021/05/25 10:53:23;;;;;;;1.80;0.50;;;;;;;;;;5014021;28;20076;-49
2021/05/25 10:55:49;;;;;;;1.52;0.60;;;;;;;;;;5030328;28;20033;-49
2021/05/25 10:58:18;;;;;;;2.85;0.68;;;;;;;;;;5021011;28;20057;-49
2021/05/25 11:00:45;;;;;;;1.20;0.47;;;;;;;;;;5032624;28;20044;-49
2021/05/25 11:03:14;;;;;;;0.73;0.40;;;;;;;;;;5027894;28;20029;-49
2021/05/25 11:05:46;;;;;;;3.92;0.73;;;;;;;;;;5017274;28;20044;-48
2021/05/25 11:08:17;;;;;;;1.83;0.47;;;;;;;;;;5013035;28;20037;-48
2021/05/25 11:10:44;;;;;;;1.48;0.57;;;;;;;;;;5016352;28;20040;-49
2021/05/25 11:13:25;;;;;;;1.55;0.60;;;;;;;;;;5018957;28;20030;-52
2021/05/25 11:16:13;;;;;;;2.03;0.60;;;;;;;;;;5012534;28;20034;-50
2021/05/25 11:24:36;;;;;;;1.95;0.63;;;;;;;;;;5020059;28;20032;-48
2021/05/25 11:27:11;;;;;;;1.63;0.40;;;;;;;;;;5030862;28;20061;-50
2021/05/25 11:29:40;;;;;;;0.68;0.50;;;;;;;;;;5022823;28;20053;-48
2021/05/25 11:32:11;;;;;;;2.25;0.60;;;;;;;;;;5017247;28;20022;-50
2021/05/25 11:34:37;;;;;;;1.67;0.50;;;;;;;;;;5018805;28;20124;-48
2021/05/25 11:37:04;;;;;;;0.80;0.40;;;;;;;;;;5027597;28;20026;-50
2021/05/25 11:39:32;;;;;;;1.67;0.50;;;;;;;;;;5018640;28;20037;-48
2021/05/25 11:41:58;;;;;;;5.28;0.75;;;;;;;;;;5011393;28;20056;-50
2021/05/25 11:44:32;;;;;;;1.70;0.60;;;;;;;;;;5023351;28;20113;-48
2021/05/25 11:46:58;;;;;;;2.00;0.45;;;;;;;;;;5024932;28;20187;-48
2021/05/25 11:49:25;;;;;;;1.55;0.40;;;;;;;;;;5023082;28;20025;-48
2021/05/25 11:51:51;;;;;;;2.17;0.40;;;;;;;;;;5027657;28;20389;-50
2021/05/25 11:54:20;;;;;;;1.95;0.47;;;;;;;;;;5029272;28;20021;-50
2021/05/25 11:56:47;;;;;;;4.30;0.85;;;;;;;;;;5018082;28;20041;-49
2021/05/25 11:59:20;;;;;;;1.35;0.45;;;;;;;;;;5019123;28;20033;-52
2021/05/25 12:01:48;;;;;;;0.73;0.30;;;;;;;;;;5021811;28;20030;-50
2021/05/25 12:04:14;;;;;;;1.52;0.40;;;;;;;;;;5019322;28;20041;-51
2021/05/25 12:06:50;;;;;;;1.45;0.50;;;;;;;;;;5026939;28;20029;-52
2021/05/25 12:09:17;;;;;;;0.55;0.30;;;;;;;;;;5018824;28;20026;-49
2021/05/25 12:11:43;;;;;;;1.02;0.40;;;;;;;;;;5028321;28;20030;-50
2021/05/25 12:14:10;;;;;;;1.40;0.40;;;;;;;;;;5024294;28;20476;-48
2021/05/25 12:16:36;;;;;;;1.20;0.47;;;;;;;;;;5019253;28;20043;-50
2021/05/25 12:19:03;;;;;;;0.80;0.30;;;;;;;;;;5015857;28;20030;-48
2021/05/25 12:21:29;;;;;;;0.57;0.30;;;;;;;;;;5013420;28;20412;-49
2021/05/25 12:23:55;;;;;;;1.50;0.45;;;;;;;;;;5018204;28;20033;-48
2021/05/25 12:26:25;;;;;;;2.05;0.50;;;;;;;;;;5020513;28;20017;-48
2021/05/25 12:28:53;;;;;;;3.00;0.55;;;;;;;;;;5018934;28;20026;-49
2021/05/25 12:31:19;;;;;;;1.55;0.40;;;;;;;;;;5023995;28;20030;-49
2021/05/25 12:33:46;;;;;;;0.40;0.25;;;;;;;;;;5014138;28;20105;-48
2021/05/25 12:36:14;;;;;;;1.75;0.45;;;;;;;;;;5017158;28;20871;-48
2021/05/25 12:38:40;;;;;;;1.00;0.38;;;;;;;;;;5013639;28;20022;-48
2021/05/25 12:41:06;;;;;;;2.17;0.40;;;;;;;;;;5014499;28;20066;-47
2021/05/25 12:43:33;;;;;;;0.82;0.30;;;;;;;;;;5015455;28;20022;-47
2021/05/25 12:46:06;;;;;;;0.95;0.38;;;;;;;;;;5018009;28;20030;-48
2021/05/25 12:48:36;;;;;;;1.02;0.30;;;;;;;;;;5020619;28;20077;-51
2021/05/25 12:51:02;;;;;;;4.78;0.10;;;;;;;;;;5014271;28;20052;-47
2021/05/25 12:53:29;;;;;;;1.27;0.22;;;;;;;;;;5015077;28;20105;-48
2021/05/25 12:55:59;;;;;;;2.03;0.30;;;;;;;;;;5016563;28;20029;-51
2021/05/25 12:58:45;;;;;;;1.50;0.65;;;;;;;;;;5014214;28;20429;-49
2021/05/25 13:01:25;;;;;;;0.52;0.22;;;;;;;;;;5015702;28;20033;-49
2021/05/25 13:03:51;;;;;;;0.93;0.20;;;;;;;;;;5022034;28;20154;-48
2021/05/25 13:06:27;;;;;;;0.22;0.10;;;;;;;;;;5023095;28;20021;-50
2021/05/25 13:09:04;;;;;;;2.65;0.30;;;;;;;;;;5019863;28;20026;-48
2021/05/25 13:11:30;;;;;;;0.65;0.30;;;;;;;;;;5024513;28;20465;-48
2021/05/25 13:13:56;;;;;;;1.02;0.20;;;;;;;;;;5014208;28;20076;-52
2021/05/25 13:16:24;;;;;;;0.20;0.10;;;;;;;;;;5020818;28;20021;-50
2021/05/25 13:18:51;;;;;;;2.35;0.20;;;;;;;;;;5016747;28;20030;-49
2021/05/25 13:21:18;;;;;;;0.32;0.25;;;;;;;;;;5014491;28;20168;-53
2021/05/25 13:23:53;;;;;;;0.20;0.10;;;;;;;;;;5034340;28;20028;-49
2021/05/25 13:26:45;;;;;;;1.13;0.30;;;;;;;;;;5020486;28;20441;-48
2021/05/25 13:29:20;;;;;;;0.52;0.13;;;;;;;;;;5019513;28;20037;-50
2021/05/25 13:31:47;;;;;;;0.63;0.20;;;;;;;;;;5025270;28;20518;-51
2021/05/25 13:34:15;;;;;;;0.60;0.30;;;;;;;;;;5027763;28;20088;-49
2021/05/25 13:36:41;;;;;;;0.50;0.30;;;;;;;;;;5014504;28;20032;-53
2021/05/25 13:39:08;;;;;;;0.90;0.20;;;;;;;;;;5030667;28;20068;-50
2021/05/25 13:41:35;;;;;;;0.88;0.10;;;;;;;;;;5034159;28;20080;-52
2021/05/25 13:44:03;;;;;;;0.50;0.10;;;;;;;;;;5030370;28;20105;-48
2021/05/25 13:46:29;;;;;;;0.55;0.20;;;;;;;;;;5020713;28;20021;-50
2021/05/25 13:48:55;;;;;;;0.10;0.10;;;;;;;;;;5018169;28;20351;-49
2021/05/25 13:51:22;;;;;;;0.35;0.15;;;;;;;;;;5023713;28;20045;-48
2021/05/25 13:53:48;;;;;;;0.60;0.20;;;;;;;;;;5031735;28;20018;-48
2021/05/25 13:56:20;;;;;;;2.03;0.08;;;;;;;;;;5033568;28;20044;-49
2021/05/25 13:58:47;;;;;;;1.67;0.10;;;;;;;;;;5014114;28;20049;-48
2021/05/25 14:03:48;;;;;;;0.25;0.00;;;;;;;;;;5013479;28;20041;-49
2021/05/25 14:06:14;;;;;;;0.63;0.15;;;;;;;;;;5026925;28;20100;-49
2021/05/25 14:08:40;;;;;;;0.20;0.00;;;;;;;;;;5033750;28;20037;-50
2021/05/25 14:11:07;;;;;;;0.38;0.20;;;;;;;;;;5020461;28;20133;-48
2021/05/25 14:13:35;;;;;;;0.70;0.00;;;;;;;;;;5025611;28;20462;-49
2021/05/25 14:16:01;;;;;;;0.98;0.40;;;;;;;;;;5026976;28;20022;-48
2021/05/25 14:18:27;;;;;;;1.10;0.10;;;;;;;;;;5020427;28;20033;-48
2021/05/25 14:20:53;;;;;;;3.63;0.32;;;;;;;;;;5022569;28;20096;-48
2021/05/25 14:23:19;;;;;;;1.45;0.20;;;;;;;;;;5026668;28;20034;-51
2021/05/25 14:25:46;;;;;;;3.13;0.17;;;;;;;;;;5014887;28;20014;-50
2021/05/25 14:28:14;;;;;;;0.47;0.20;;;;;;;;;;5032949;28;20053;-50
2021/05/25 14:30:40;;;;;;;0.63;0.15;;;;;;;;;;5019219;28;20120;-50
2021/05/25 14:33:06;;;;;;;9.20;0.40;;;;;;;;;;5020518;28;20029;-48
2021/05/25 14:35:32;;;;;;;0.52;0.22;;;;;;;;;;5016214;28;20120;-49
2021/05/25 14:37:58;;;;;;;1.13;0.17;;;;;;;;;;5021070;28;20056;-50
2021/05/25 14:40:24;;;;;;;2.85;0.30;;;;;;;;;;5005826;28;20034;-49
2021/05/25 14:42:53;;;;;;;2.25;0.20;;;;;;;;;;5027443;28;20049;-48
2021/05/25 14:45:20;;;;;;;2.60;0.30;;;;;;;;;;5022466;28;20458;-49
2021/05/25 14:47:46;;;;;;;1.00;0.20;;;;;;;;;;5019158;28;20025;-48
2021/05/25 14:50:23;;;;;;;1.27;0.30;;;;;;;;;;5032742;28;20382;-48
2021/05/25 14:52:51;;;;;;;0.70;0.25;;;;;;;;;;5020926;28;20037;-50
2021/05/25 14:55:19;;;;;;;0.90;0.40;;;;;;;;;;5016820;28;20500;-48
2021/05/25 14:57:45;;;;;;;5.75;0.30;;;;;;;;;;5013590;28;20032;-48
2021/05/25 15:00:13;;;;;;;0.25;0.10;;;;;;;;;;5025059;28;20148;-48